createdAt,value
2022-09-02T00:01:25.740Z,9.35
2022-09-02T00:03:57.599Z,9.07
2022-09-02T00:06:26.257Z,12.90
2022-09-02T00:08:54.121Z,13.70
2022-09-02T00:11:25.576Z,10.85
2022-09-02T00:13:55.744Z,9.18
2022-09-02T00:16:25.055Z,12.35
2022-09-02T00:18:54.351Z,10.50
2022-09-02T00:21:22.910Z,14.10
2022-09-02T00:23:51.187Z,10.40
2022-09-02T00:26:19.202Z,13.95
2022-09-02T00:28:51.047Z,13.23
2022-09-02T00:31:26.195Z,13.27
2022-09-02T00:33:54.517Z,14.30
2022-09-02T00:36:22.792Z,10.93
2022-09-02T00:38:50.531Z,12.65
2022-09-02T00:41:21.773Z,17.05
2022-09-02T00:43:51.755Z,16.58
2022-09-02T00:46:21.730Z,15.88
2022-09-02T00:48:57.042Z,14.23
2022-09-02T00:51:25.509Z,17.25
2022-09-02T00:53:54.019Z,17.80
2022-09-02T00:56:24.451Z,17.23
2022-09-02T00:58:54.163Z,13.95
2022-09-02T01:01:22.747Z,16.27
2022-09-02T01:03:52.899Z,14.20
2022-09-02T01:06:24.428Z,16.67
2022-09-02T01:08:59.444Z,16.77
2022-09-02T01:11:32.510Z,15.60
2022-09-02T01:14:01.798Z,14.65
2022-09-02T01:16:34.976Z,13.68
2022-09-02T01:19:11.629Z,14.73
2022-09-02T01:21:39.405Z,14.65
2022-09-02T01:24:09.120Z,15.02
2022-09-02T01:26:36.761Z,16.52
2022-09-02T01:29:04.634Z,15.25
2022-09-02T01:31:32.345Z,14.25
2022-09-02T01:34:00.066Z,17.63
2022-09-02T01:36:27.826Z,18.65
2022-09-02T01:38:55.699Z,17.27
2022-09-02T01:41:24.724Z,17.02
2022-09-02T01:43:52.763Z,16.40
2022-09-02T01:46:20.509Z,16.50
2022-09-02T01:48:48.214Z,18.08
2022-09-02T01:51:18.604Z,18.98
2022-09-02T01:53:46.722Z,18.77
2022-09-02T01:56:14.555Z,17.52
2022-09-02T01:58:43.671Z,18.73
2022-09-02T02:01:11.506Z,18.77
2022-09-02T02:03:39.810Z,21.75
2022-09-02T02:06:11.190Z,20.40
2022-09-02T02:08:39.722Z,19.25
2022-09-02T02:11:08.822Z,20.70
2022-09-02T02:13:36.830Z,18.98
2022-09-02T02:16:06.214Z,15.85
2022-09-02T02:18:33.955Z,18.65
2022-09-02T02:21:01.601Z,15.50
2022-09-02T02:23:29.284Z,17.40
2022-09-02T02:25:56.970Z,17.92
2022-09-02T02:28:24.738Z,17.35
2022-09-02T02:30:52.482Z,16.50
2022-09-02T02:33:21.559Z,18.13
2022-09-02T02:35:53.778Z,17.17
2022-09-02T02:38:24.065Z,18.65
2022-09-02T02:40:55.771Z,16.60
2022-09-02T02:43:23.528Z,17.27
2022-09-02T02:45:51.958Z,15.18
2022-09-02T02:48:21.037Z,16.23
2022-09-02T02:50:48.855Z,18.48
2022-09-02T02:53:17.538Z,15.60
2022-09-02T02:55:45.699Z,14.48
2022-09-02T02:58:17.824Z,15.73
2022-09-02T03:00:46.257Z,18.40
2022-09-02T03:03:14.878Z,17.80
2022-09-02T03:05:43.966Z,15.45
2022-09-02T03:08:12.129Z,17.67
2022-09-02T03:10:42.001Z,17.40
2022-09-02T03:13:11.573Z,18.50
2022-09-02T03:15:40.223Z,20.38
2022-09-02T03:18:08.395Z,20.67
2022-09-02T03:20:36.863Z,18.13
2022-09-02T03:23:05.963Z,19.45
2022-09-02T03:25:36.155Z,14.60
2022-09-02T03:28:04.913Z,20.92
2022-09-02T03:30:33.966Z,18.30
2022-09-02T03:33:04.250Z,19.75
2022-09-02T03:35:33.106Z,16.60
2022-09-02T03:38:01.558Z,18.73
2022-09-02T03:40:31.057Z,16.92
2022-09-02T03:43:00.424Z,21.20
2022-09-02T03:45:29.287Z,22.55
2022-09-02T03:47:58.662Z,19.20
2022-09-02T03:50:29.883Z,22.95
2022-09-02T03:52:59.059Z,20.60
2022-09-02T03:55:27.137Z,19.48
2022-09-02T03:57:56.296Z,16.42
2022-09-02T04:00:29.031Z,20.20
2022-09-02T04:02:57.369Z,17.27
2022-09-02T04:05:25.623Z,18.30
2022-09-02T04:07:53.332Z,20.23
2022-09-02T04:10:22.068Z,17.23
2022-09-02T04:12:50.256Z,19.65
2022-09-02T04:15:20.374Z,17.25
2022-09-02T04:17:48.166Z,18.48
2022-09-02T04:20:17.561Z,19.13
2022-09-02T04:22:45.733Z,19.70
2022-09-02T04:25:13.591Z,21.77
2022-09-02T04:27:41.686Z,19.05
2022-09-02T04:30:10.824Z,17.30
2022-09-02T04:32:40.898Z,17.92
2022-09-02T04:35:09.089Z,19.77
2022-09-02T04:37:36.730Z,16.60
2022-09-02T04:40:04.886Z,15.93
2022-09-02T04:42:32.697Z,12.55
2022-09-02T04:45:00.401Z,16.08
2022-09-02T04:47:28.182Z,14.73
2022-09-02T04:49:58.429Z,15.20
2022-09-02T04:52:26.562Z,15.90
2022-09-02T04:54:54.221Z,22.40
2022-09-02T04:57:22.400Z,16.30
2022-09-02T04:59:50.083Z,18.55
2022-09-02T05:02:18.281Z,17.40
2022-09-02T05:04:46.234Z,14.55
2022-09-02T05:07:16.075Z,17.42
2022-09-02T05:09:44.369Z,14.50
2022-09-02T05:12:12.092Z,12.13
2022-09-02T05:14:40.350Z,18.35
2022-09-02T05:17:08.152Z,18.67
2022-09-02T05:19:35.953Z,14.57
2022-09-02T05:22:05.023Z,12.48
2022-09-02T05:24:34.167Z,10.55
2022-09-02T05:27:01.895Z,15.38
2022-09-02T05:29:29.605Z,14.48
2022-09-02T05:31:57.466Z,12.73
2022-09-02T05:34:25.206Z,11.63
2022-09-02T05:36:53.860Z,13.10
2022-09-02T05:39:21.734Z,10.32
2022-09-02T05:41:50.878Z,12.13
2022-09-02T05:44:18.691Z,12.10
2022-09-02T05:46:48.952Z,15.07
2022-09-02T05:49:18.255Z,9.18
2022-09-02T05:51:48.054Z,12.02
2022-09-02T05:54:19.046Z,9.95
2022-09-02T05:56:48.903Z,9.35
2022-09-02T05:59:18.937Z,9.38
2022-09-02T06:01:46.986Z,9.20
2022-09-02T06:04:15.526Z,8.15
2022-09-02T06:06:43.581Z,10.82
2022-09-02T06:09:14.609Z,7.97
2022-09-02T06:11:44.618Z,6.95
2022-09-02T06:14:13.944Z,5.60
2022-09-02T06:16:43.937Z,12.65
2022-09-02T06:19:13.570Z,9.82
2022-09-02T06:21:44.267Z,9.32
2022-09-02T06:24:13.302Z,7.75
2022-09-02T06:26:42.549Z,8.07
2022-09-02T06:29:11.409Z,5.50
2022-09-02T06:31:43.968Z,8.73
2022-09-02T06:34:13.686Z,10.55
2022-09-02T06:36:42.843Z,7.75
2022-09-02T06:39:12.901Z,7.32
2022-09-02T06:41:42.571Z,6.35
2022-09-02T06:44:11.907Z,5.30
2022-09-02T06:46:47.782Z,6.35
2022-09-02T06:49:16.864Z,6.43
2022-09-02T06:51:47.007Z,6.68
2022-09-02T06:54:16.926Z,9.23
2022-09-02T06:56:49.199Z,9.40
2022-09-02T06:59:18.046Z,7.95
2022-09-02T07:01:47.607Z,8.93
2022-09-02T07:04:33.431Z,8.88
2022-09-02T07:07:01.119Z,5.05
2022-09-02T07:09:31.261Z,8.50
2022-09-02T07:12:04.215Z,4.00
2022-09-02T07:14:36.963Z,5.50
2022-09-02T07:17:07.037Z,8.63
2022-09-02T07:19:34.816Z,5.70
2022-09-02T07:22:03.993Z,6.15
2022-09-02T07:24:31.788Z,8.52
2022-09-02T07:26:59.510Z,5.38
2022-09-02T07:29:27.220Z,4.47
2022-09-02T07:31:54.933Z,7.30
2022-09-02T07:34:24.102Z,4.72
2022-09-02T07:36:52.592Z,9.90
2022-09-02T07:39:21.081Z,4.65
2022-09-02T07:41:50.725Z,6.90
2022-09-02T07:44:19.767Z,7.63
2022-09-02T07:46:47.802Z,4.38
2022-09-02T07:49:20.836Z,6.50
2022-09-02T07:51:52.807Z,6.87
2022-09-02T07:54:23.187Z,9.88
2022-09-02T07:56:51.179Z,4.00
2022-09-02T07:59:21.231Z,5.15
2022-09-02T08:01:49.372Z,6.63
2022-09-02T08:04:18.689Z,4.95
2022-09-02T08:06:46.755Z,6.20
2022-09-02T08:09:15.880Z,4.35
2022-09-02T08:11:46.540Z,9.25
2022-09-02T08:14:19.082Z,6.25
2022-09-02T08:16:48.283Z,3.92
2022-09-02T08:19:16.369Z,4.57
2022-09-02T08:21:44.161Z,4.25
2022-09-02T08:24:11.892Z,3.65
2022-09-02T08:26:41.084Z,9.50
2022-09-02T08:29:10.175Z,5.70
2022-09-02T08:31:38.829Z,3.38
2022-09-02T08:34:06.949Z,5.38
2022-09-02T08:36:34.671Z,5.68
2022-09-02T08:39:04.700Z,3.25
2022-09-02T08:41:39.986Z,3.72
2022-09-02T08:44:14.914Z,4.20
2022-09-02T08:46:42.790Z,3.35
2022-09-02T08:49:17.054Z,3.60
2022-09-02T08:51:52.853Z,8.05
2022-09-02T08:54:27.338Z,3.75
2022-09-02T08:56:56.305Z,4.38
2022-09-02T08:59:27.700Z,5.60
2022-09-02T09:02:01.220Z,4.47
2022-09-02T09:04:54.634Z,4.95
2022-09-02T09:07:30.763Z,5.50
2022-09-02T09:10:09.708Z,4.25
2022-09-02T09:12:52.440Z,3.83
2022-09-02T09:15:31.817Z,4.05
2022-09-02T09:18:01.810Z,3.33
2022-09-02T09:20:32.959Z,3.55
2022-09-02T09:23:03.082Z,6.68
2022-09-02T09:25:31.006Z,6.13
2022-09-02T09:27:59.043Z,6.00
2022-09-02T09:30:28.999Z,2.22
2022-09-02T09:32:59.983Z,4.35
2022-09-02T09:35:29.663Z,3.50
2022-09-02T09:37:57.597Z,3.58
2022-09-02T09:40:31.925Z,4.38
2022-09-02T09:43:14.534Z,4.13
2022-09-02T09:45:46.165Z,3.85
2022-09-02T09:48:23.070Z,2.78
2022-09-02T09:51:11.535Z,2.53
2022-09-02T09:53:39.805Z,5.88
2022-09-02T09:56:08.890Z,5.50
2022-09-02T09:58:44.633Z,4.70
2022-09-02T10:01:16.040Z,5.05
2022-09-02T10:03:49.622Z,4.07
2022-09-02T10:06:23.409Z,4.13
2022-09-02T10:08:56.974Z,3.38
2022-09-02T10:11:26.803Z,3.85
2022-09-02T10:14:00.646Z,3.97
2022-09-02T10:16:54.379Z,3.92
2022-09-02T10:19:28.287Z,5.07
2022-09-02T10:22:38.503Z,4.00
2022-09-02T10:25:30.430Z,3.22
2022-09-02T10:28:07.581Z,4.80
2022-09-02T10:30:44.111Z,4.80
2022-09-02T10:35:53.132Z,5.45
2022-09-02T10:38:37.163Z,3.03
2022-09-02T10:41:20.194Z,3.28
2022-09-02T10:44:00.844Z,5.93
2022-09-02T10:46:38.036Z,4.28
2022-09-02T10:49:19.573Z,5.68
2022-09-02T10:51:56.554Z,4.70
2022-09-02T10:54:37.713Z,4.63
2022-09-02T10:57:11.290Z,5.63
2022-09-02T10:59:44.731Z,3.40
2022-09-02T11:02:19.002Z,4.30
2022-09-02T11:04:52.964Z,3.63
2022-09-02T11:07:28.690Z,2.75
2022-09-02T11:10:00.649Z,2.50
2022-09-02T11:12:33.961Z,3.78
2022-09-02T11:15:10.952Z,3.58
2022-09-02T11:17:43.323Z,4.60
2022-09-02T11:20:19.051Z,3.90
2022-09-02T11:22:54.605Z,2.35
2022-09-02T11:25:25.456Z,1.92
2022-09-02T11:28:00.551Z,3.45
2022-09-02T11:30:37.039Z,2.53
2022-09-02T11:33:17.315Z,5.50
2022-09-02T11:35:46.525Z,2.97
2022-09-02T11:38:31.266Z,3.38
2022-09-02T11:44:30.934Z,2.35
2022-09-02T11:47:10.050Z,4.18
2022-09-02T11:50:02.648Z,4.78
2022-09-02T11:52:46.001Z,3.35
2022-09-02T11:55:18.757Z,2.83
2022-09-02T11:57:54.153Z,3.35
2022-09-02T12:00:31.864Z,3.97
2022-09-02T12:03:28.479Z,2.60
2022-09-02T12:06:11.053Z,1.75
2022-09-02T12:09:13.159Z,3.53
2022-09-02T12:11:48.450Z,2.22
2022-09-02T12:14:56.026Z,7.38
2022-09-02T12:17:46.223Z,2.13
2022-09-02T12:20:52.292Z,3.42
2022-09-02T12:23:57.720Z,2.55
2022-09-02T12:26:29.304Z,3.92
2022-09-02T12:29:12.909Z,2.33
2022-09-02T12:31:42.727Z,4.22
2022-09-02T12:34:40.392Z,2.92
2022-09-02T12:37:08.153Z,2.85
2022-09-02T12:39:57.020Z,3.45
2022-09-02T12:42:33.363Z,2.25
2022-09-02T12:47:47.802Z,5.05
2022-09-02T12:50:23.331Z,2.55
2022-09-02T12:52:52.542Z,3.85
2022-09-02T12:55:24.966Z,2.83
2022-09-02T12:57:56.867Z,3.25
2022-09-02T13:00:34.627Z,2.25
2022-09-02T13:03:22.713Z,2.92
2022-09-02T13:05:57.187Z,1.80
2022-09-02T13:09:15.523Z,2.45
2022-09-02T13:12:18.351Z,1.83
2022-09-02T13:15:04.122Z,2.95
2022-09-02T13:18:11.414Z,2.00
2022-09-02T13:21:05.435Z,5.35
2022-09-02T13:24:14.210Z,3.50
2022-09-02T13:27:12.442Z,2.30
2022-09-02T13:30:01.874Z,1.85
2022-09-02T13:32:31.541Z,4.10
2022-09-02T13:35:03.374Z,2.05
2022-09-02T13:37:33.551Z,3.17
2022-09-02T13:40:05.061Z,2.40
2022-09-02T13:42:33.293Z,5.63
2022-09-02T13:45:14.243Z,4.07
2022-09-02T13:47:46.481Z,2.88
2022-09-02T13:50:18.795Z,2.90
2022-09-02T13:54:05.134Z,2.08
2022-09-02T13:55:39.516Z,2.72
2022-09-02T13:58:18.846Z,2.53
2022-09-02T14:00:48.301Z,3.53
2022-09-02T14:03:19.183Z,2.28
2022-09-02T14:05:49.315Z,1.52
2022-09-02T14:08:22.685Z,1.90
2022-09-02T14:10:52.724Z,4.30
2022-09-02T14:13:21.509Z,4.30
2022-09-02T14:15:50.697Z,4.13
2022-09-02T14:18:20.321Z,4.93
2022-09-02T14:21:00.105Z,4.55
2022-09-02T14:23:33.375Z,2.30
2022-09-02T14:26:03.365Z,1.90
2022-09-02T14:28:34.468Z,2.85
2022-09-02T14:31:06.083Z,1.65
2022-09-02T14:33:42.499Z,3.28
2022-09-02T14:36:14.007Z,3.03
2022-09-02T14:38:52.385Z,2.10
2022-09-02T14:41:23.330Z,3.42
2022-09-02T14:43:53.968Z,1.98
2022-09-02T14:46:29.482Z,2.95
2022-09-02T14:49:02.693Z,2.20
2022-09-02T14:51:37.207Z,2.47
2022-09-02T14:54:06.135Z,1.60
2022-09-02T14:56:51.529Z,3.47
2022-09-02T14:59:20.721Z,4.10
2022-09-02T15:01:52.079Z,2.28
2022-09-02T15:04:20.527Z,4.13
2022-09-02T15:06:49.086Z,2.05
2022-09-02T15:09:17.290Z,3.90
2022-09-02T15:11:49.366Z,1.65
2022-09-02T15:14:17.053Z,2.92
2022-09-02T15:16:44.743Z,1.75
2022-09-02T15:19:14.392Z,3.83
2022-09-02T15:21:42.069Z,2.20
2022-09-02T15:24:09.830Z,5.75
2022-09-02T15:26:37.554Z,3.33
2022-09-02T15:29:05.252Z,4.60
2022-09-02T15:31:33.000Z,2.97
2022-09-02T15:34:02.345Z,2.83
2022-09-02T15:36:31.416Z,6.57
2022-09-02T15:39:00.334Z,1.63
2022-09-02T15:41:31.426Z,3.55
2022-09-02T15:44:00.515Z,4.72
2022-09-02T15:46:30.190Z,2.38
2022-09-02T15:49:02.846Z,3.10
2022-09-02T15:51:33.047Z,2.40
2022-09-02T15:54:02.225Z,2.72
2022-09-02T15:56:31.275Z,2.22
2022-09-02T15:58:59.926Z,2.95
2022-09-02T16:01:28.677Z,3.47
2022-09-02T16:03:56.889Z,5.35
2022-09-02T16:06:24.611Z,2.42
2022-09-02T16:08:53.636Z,4.05
2022-09-02T16:11:21.522Z,2.55
2022-09-02T16:13:49.549Z,3.25
2022-09-02T16:16:17.971Z,2.03
2022-09-02T16:18:51.177Z,2.35
2022-09-02T16:21:19.795Z,1.48
2022-09-02T16:23:49.534Z,2.25
2022-09-02T16:26:25.057Z,1.70
2022-09-02T16:28:55.515Z,3.45
2022-09-02T16:31:25.207Z,4.18
2022-09-02T16:33:53.859Z,3.20
2022-09-02T16:36:21.814Z,2.03
2022-09-02T16:38:49.539Z,2.45
2022-09-02T16:41:27.205Z,2.15
2022-09-02T16:43:55.392Z,2.45
2022-09-02T16:46:23.150Z,2.72
2022-09-02T16:48:51.187Z,1.75
2022-09-02T16:51:19.022Z,2.30
2022-09-02T16:53:47.147Z,2.85
2022-09-02T16:56:15.487Z,1.65
2022-09-02T16:58:44.623Z,4.43
2022-09-02T17:01:13.591Z,3.55
2022-09-02T17:03:41.915Z,2.13
2022-09-02T17:06:10.261Z,3.88
2022-09-02T17:08:38.423Z,2.38
2022-09-02T17:11:18.221Z,1.70
2022-09-02T17:13:47.846Z,2.50
2022-09-02T17:16:15.718Z,3.08
2022-09-02T17:18:43.469Z,1.83
2022-09-02T17:21:21.998Z,2.53
2022-09-02T17:23:50.356Z,2.28
2022-09-02T17:26:18.783Z,2.90
2022-09-02T17:28:47.899Z,2.13
2022-09-02T17:31:20.443Z,2.45
2022-09-02T17:33:48.459Z,2.72
2022-09-02T17:36:16.653Z,3.17
2022-09-02T17:38:44.958Z,2.25
2022-09-02T17:41:30.276Z,3.28
2022-09-02T17:43:59.735Z,3.08
2022-09-02T17:46:27.515Z,1.55
2022-09-02T17:49:15.782Z,1.33
2022-09-02T17:51:44.841Z,1.50
2022-09-02T17:54:13.511Z,2.72
2022-09-02T17:56:57.611Z,3.78
2022-09-02T17:59:31.216Z,3.75
2022-09-02T18:02:28.037Z,3.90
2022-09-02T18:05:03.922Z,3.38
2022-09-02T18:07:41.235Z,4.07
2022-09-02T18:10:08.958Z,2.15
2022-09-02T18:12:37.961Z,2.33
2022-09-02T18:15:08.356Z,3.83
2022-09-02T18:17:38.055Z,6.05
2022-09-02T18:20:13.274Z,3.55
2022-09-02T18:23:09.942Z,3.65
2022-09-02T18:25:51.595Z,2.95
2022-09-02T18:28:30.151Z,3.50
2022-09-02T18:31:12.429Z,9.13
2022-09-02T18:33:56.005Z,6.63
2022-09-02T18:36:35.785Z,4.95
2022-09-02T18:39:19.070Z,3.70
2022-09-02T18:42:01.907Z,5.50
2022-09-02T18:44:39.104Z,4.03
2022-09-02T18:47:14.363Z,5.18
2022-09-02T18:49:44.647Z,5.53
2022-09-02T18:52:12.714Z,5.25
2022-09-02T18:54:47.086Z,4.72
2022-09-02T18:57:16.096Z,5.18
2022-09-02T18:59:50.984Z,5.18
2022-09-02T19:02:29.286Z,6.85
2022-09-02T19:04:59.101Z,4.80
2022-09-02T19:07:46.556Z,6.95
2022-09-02T19:10:14.719Z,5.45
2022-09-02T19:12:43.703Z,6.15
2022-09-02T19:15:13.424Z,6.22
2022-09-02T19:17:43.009Z,6.35
2022-09-02T19:20:11.138Z,9.20
2022-09-02T19:22:41.984Z,7.18
2022-09-02T19:25:13.273Z,5.88
2022-09-02T19:27:44.761Z,6.18
2022-09-02T19:30:14.818Z,7.35
2022-09-02T19:32:47.554Z,9.63
2022-09-02T19:35:18.173Z,8.23
2022-09-02T19:37:47.113Z,7.65
2022-09-02T19:40:19.584Z,7.97
2022-09-02T19:42:47.490Z,11.25
2022-09-02T19:45:16.799Z,5.95
2022-09-02T19:50:34.598Z,8.43
2022-09-02T19:53:02.714Z,4.93
2022-09-02T19:55:33.530Z,7.10
2022-09-02T19:58:01.288Z,7.80
2022-09-02T20:00:29.083Z,5.72
2022-09-02T20:02:58.156Z,6.18
2022-09-02T20:05:26.009Z,4.57
2022-09-02T20:07:53.788Z,6.38
2022-09-02T20:10:22.598Z,7.25
2022-09-02T20:12:56.205Z,6.72
2022-09-02T20:15:23.964Z,5.50
2022-09-02T20:17:51.669Z,8.13
2022-09-02T20:20:23.858Z,6.82
2022-09-02T20:22:56.101Z,6.05
2022-09-02T20:25:33.517Z,8.25
2022-09-02T20:28:13.871Z,7.07
2022-09-02T20:30:48.606Z,12.10
2022-09-02T20:33:19.299Z,8.35
2022-09-02T20:36:02.494Z,12.10
2022-09-02T20:38:58.133Z,13.93
2022-09-02T20:41:33.899Z,12.23
2022-09-02T20:44:23.694Z,16.80
2022-09-02T20:47:05.748Z,20.45
2022-09-02T20:49:53.984Z,17.92
2022-09-02T20:52:31.386Z,17.17
2022-09-02T20:55:05.845Z,21.63
2022-09-02T20:57:48.474Z,18.25
2022-09-02T21:00:20.451Z,18.25
2022-09-02T21:02:55.961Z,24.77
2022-09-02T21:05:29.123Z,21.42
2022-09-02T21:08:05.329Z,15.65
2022-09-02T21:10:37.305Z,17.25
2022-09-02T21:13:11.164Z,19.08
2022-09-02T21:15:45.829Z,23.17
2022-09-02T21:18:20.111Z,18.63
2022-09-02T21:20:54.039Z,18.15
2022-09-02T21:23:28.389Z,19.25
2022-09-02T21:25:57.979Z,18.83
2022-09-02T21:28:33.687Z,19.65
2022-09-02T21:31:06.136Z,22.08
2022-09-02T21:33:36.170Z,23.95
2022-09-02T21:36:06.147Z,22.23
2022-09-02T21:38:40.503Z,25.40
2022-09-02T21:41:21.375Z,22.98
2022-09-02T21:43:56.678Z,21.63
2022-09-02T21:46:33.232Z,27.30
2022-09-02T21:49:10.669Z,24.60
2022-09-02T21:51:46.717Z,21.95
2022-09-02T21:54:35.219Z,23.88
2022-09-02T21:57:20.000Z,21.75
2022-09-02T22:00:01.474Z,23.58
2022-09-02T22:02:38.797Z,20.38
2022-09-02T22:05:21.050Z,25.70
2022-09-02T22:07:51.614Z,25.95
2022-09-02T22:10:29.220Z,25.20
2022-09-02T22:13:03.433Z,20.08
2022-09-02T22:15:43.473Z,23.52
2022-09-02T22:18:20.909Z,21.73
2022-09-02T22:20:52.226Z,19.50
2022-09-02T22:23:26.206Z,21.83
2022-09-02T22:25:56.147Z,21.08
2022-09-02T22:28:32.401Z,23.52
2022-09-02T22:31:05.546Z,23.20
2022-09-02T22:33:40.414Z,24.50
2022-09-02T22:36:18.158Z,23.80
2022-09-02T22:38:49.705Z,23.50
2022-09-02T22:41:26.168Z,21.45
2022-09-02T22:46:53.932Z,22.27
2022-09-02T22:52:44.928Z,24.67
2022-09-02T22:55:13.930Z,23.48
2022-09-02T22:57:52.248Z,28.88
2022-09-02T23:00:20.695Z,21.67
2022-09-02T23:03:01.794Z,20.60
2022-09-02T23:05:44.959Z,19.23
2022-09-02T23:08:14.304Z,23.08
2022-09-02T23:10:48.899Z,25.48
2022-09-02T23:13:24.771Z,22.70
2022-09-02T23:16:04.694Z,22.67
2022-09-02T23:18:42.990Z,23.08
2022-09-02T23:21:17.781Z,22.40
2022-09-02T23:23:55.755Z,26.30
2022-09-02T23:26:35.358Z,23.65
2022-09-02T23:29:15.684Z,17.67
2022-09-02T23:32:00.428Z,25.23
2022-09-02T23:34:43.644Z,21.10
2022-09-02T23:37:17.895Z,24.13
2022-09-02T23:39:57.873Z,25.52
2022-09-02T23:42:25.989Z,22.52
2022-09-02T23:45:01.450Z,22.17
2022-09-02T23:47:42.500Z,24.37
2022-09-02T23:50:21.311Z,24.15
2022-09-02T23:52:56.590Z,24.17
2022-09-02T23:55:41.344Z,24.65
2022-09-02T23:58:28.206Z,22.23
